Vohburg — V2OW7 — position and weather

sailwx.info

Track history (hours):
 
Tides and Currents Weather Stations Pressure Air Temp Water Temp Dewpoint Dewpoint Depression Visibility Wind Speed Wind Dir Waves Ship Positions

Vohburg

Last reported at 2016-Jun-30 17:33 UTC. Time now 2016-Jun-30 17:53 UTC.
Position N 53°03' E 001°26'.

Length 140 m; draft 7.3 m.

Type: Ship (hazmat cat A). MMSI: 305773000.

Date/timePositionNaut miles runAvg speedWind from/ knotsBaromVisibWave heightAir tempDewpointWater temp
2016-Jun-30 17:33N 53°03' E 001°26'1111.1
2016-Jun-30 16:33N 53°13' E 001°18'1111.3
2016-Jun-30 15:33N 53°23' E 001°08'1111.4
2016-Jun-30 14:33N 53°33' E 000°59'1111.2
2016-Jun-30 13:32N 53°41' E 000°46'1111.5
2016-Jun-30 12:33N 53°50' E 000°34'1211.6
2016-Jun-30 11:31N 53°59' E 000°21'1111.7
2016-Jun-30 10:33N 54°08' E 000°09'1211.6
2016-Jun-30 09:33N 54°17' W 000°04'1111.2
2016-Jun-30 08:33N 54°25' W 000°16'1110.9
2016-Jun-30 07:32N 54°33' W 000°30'1110.9
2016-Jun-30 06:34N 54°38' W 000°47'1111.2
2016-Jun-30 05:33N 54°40' W 001°06'2 0.2
2016-Jun-29 20:19N 54°39' W 001°09'911.2
2016-Jun-29 19:34N 54°44' W 000°57'1212.2
2016-Jun-29 18:33N 54°49' W 000°37'1212.0
2016-Jun-29 17:32N 54°54' W 000°19'40512.3
2016-Jun-28 08:33N 57°48' E 010°41'1110.9
2016-Jun-28 07:33N 57°42' E 010°58'1212.2
2016-Jun-28 06:34N 57°34' E 011°14'2412.1
2016-Jun-28 04:33N 57°13' E 011°36'1313.2
2016-Jun-28 03:33N 57°00' E 011°44'1212.4
2016-Jun-28 02:33N 56°49' E 011°53'1212.2
2016-Jun-28 01:33N 56°37' E 011°59'1212.2
2016-Jun-28 00:33N 56°26' E 012°10'1212.4
2016-Jun-27 23:33N 56°16' E 012°22'1212.3
2016-Jun-27 22:33N 56°06' E 012°35'1312.8
2016-Jun-27 21:34N 55°54' E 012°45'1312.8
2016-Jun-27 20:34N 55°42' E 012°41'7 7.3
2016-Jun-27 19:34N 55°34' E 012°42'10 9.9
2016-Jun-27 18:33N 55°24' E 012°41'1010.1
2016-Jun-27 17:34N 55°16' E 012°52'1212.5
2016-Jun-27 16:34N 55°15' E 013°13'1312.5
2016-Jun-27 15:33N 55°15' E 013°35'1312.9
2016-Jun-27 14:33N 55°14' E 013°58'1212.0
2016-Jun-27 13:33N 55°14' E 014°19'1212.5
2016-Jun-27 12:34N 55°24' E 014°33'1212.0
2016-Jun-27 11:33N 55°31' E 014°50'1312.5
2016-Jun-27 10:33N 55°37' E 015°09'311 6.2
2016-Jun-25 08:25N 59°17' E 021°57'1213.6
2016-Jun-25 07:32N 59°24' E 022°16'1614.9
2016-Jun-25 06:28N 59°32' E 022°43'1516.5
2016-Jun-25 05:33N 59°37' E 023°12'1414.4
2016-Jun-25 04:33N 59°41' E 023°39'1614.3
2016-Jun-25 03:28N 59°45' E 024°09'3414.4
2016-Jun-25 01:07N 59°53' E 025°14'2514.3
2016-Jun-24 23:24N 59°58' E 026°02'1214.6
2016-Jun-24 22:33N 60°00' E 026°26'4213.8
2016-Jun-24 19:33N 60°12' E 027°46'1514.9
2016-Jun-24 18:33N 60°08' E 028°15'1414.1
2016-Jun-24 17:33N 60°03' E 028°41'2713.6
2016-Jun-24 15:33N 60°00' E 029°36'4 0.3
2016-Jun-24 04:33N 59°59' E 029°42'1212.1
2016-Jun-24 03:33N 60°01' E 029°19'1413.7
2016-Jun-24 02:33N 60°02' E 028°51'1413.8
2016-Jun-24 01:33N 60°03' E 028°24'1413.7
2016-Jun-24 00:33N 60°09' E 027°59'1313.2
2016-Jun-23 23:33N 60°07' E 027°33'1614.4
2016-Jun-23 22:25N 59°59' E 027°05'1214.1
2016-Jun-23 21:33N 59°60' E 026°41'1614.2
2016-Jun-23 20:25N 59°57' E 026°09'1414.1
2016-Jun-23 19:26N 59°58' E 025°41'17 1.2
2016-Jun-23 05:25N 60°05' E 025°10'1515.5
2016-Jun-23 04:27N 59°52' E 024°55'1315.0
2016-Jun-23 03:33N 59°45' E 024°33'1615.6
2016-Jun-23 02:33N 59°40' E 024°03'1615.9
2016-Jun-23 01:33N 59°35' E 023°33'1616.0
2016-Jun-23 00:33N 59°30' E 023°03'1615.9
2016-Jun-22 23:33N 59°25' E 022°33'30315.8
2016-Jun-22 04:25N 55°48' E 015°58'1416.1
2016-Jun-22 03:33N 55°41' E 015°36'1616.4
2016-Jun-22 02:33N 55°34' E 015°11'1616.3
2016-Jun-22 01:33N 55°26' E 014°46'1615.8
2016-Jun-22 00:33N 55°15' E 014°26'1616.1
2016-Jun-21 23:33N 55°02' E 014°08'1616.1
2016-Jun-21 22:33N 54°57' E 013°42'1616.3
2016-Jun-21 21:33N 54°52' E 013°15'1616.1
2016-Jun-21 20:33N 54°47' E 012°49'1615.9
2016-Jun-21 19:33N 54°38' E 012°25'1615.5
2016-Jun-21 18:33N 54°25' E 012°11'1615.5
2016-Jun-21 17:33N 54°20' E 011°46'1616.2
2016-Jun-21 16:33N 54°11' E 011°22'  
Track history (hours):
 
Tides and Currents Weather Stations Pressure Air Temp Water Temp Dewpoint Dewpoint Depression Visibility Wind Speed Wind Dir Waves Ship Positions

Vohburg

Last reported at 2016-Jun-30 17:33 UTC. Time now 2016-Jun-30 17:53 UTC.
Position N 53°03' E 001°26'.

Length 140 m; draft 7.3 m.

Type: Ship (hazmat cat A). MMSI: 305773000.

Date/timePositionNaut miles runAvg speedWind from/ knotsBaromVisibWave heightAir tempDewpointWater temp
2016-Jun-30 17:33N 53°03' E 001°26'1111.1
2016-Jun-30 16:33N 53°13' E 001°18'1111.3
2016-Jun-30 15:33N 53°23' E 001°08'1111.4
2016-Jun-30 14:33N 53°33' E 000°59'1111.2
2016-Jun-30 13:32N 53°41' E 000°46'1111.5
2016-Jun-30 12:33N 53°50' E 000°34'1211.6
2016-Jun-30 11:31N 53°59' E 000°21'1111.7
2016-Jun-30 10:33N 54°08' E 000°09'1211.6
2016-Jun-30 09:33N 54°17' W 000°04'1111.2
2016-Jun-30 08:33N 54°25' W 000°16'1110.9
2016-Jun-30 07:32N 54°33' W 000°30'1110.9
2016-Jun-30 06:34N 54°38' W 000°47'1111.2
2016-Jun-30 05:33N 54°40' W 001°06'2 0.2
2016-Jun-29 20:19N 54°39' W 001°09'911.2
2016-Jun-29 19:34N 54°44' W 000°57'1212.2
2016-Jun-29 18:33N 54°49' W 000°37'1212.0
2016-Jun-29 17:32N 54°54' W 000°19'40512.3
2016-Jun-28 08:33N 57°48' E 010°41'1110.9
2016-Jun-28 07:33N 57°42' E 010°58'1212.2
2016-Jun-28 06:34N 57°34' E 011°14'2412.1
2016-Jun-28 04:33N 57°13' E 011°36'1313.2
2016-Jun-28 03:33N 57°00' E 011°44'1212.4
2016-Jun-28 02:33N 56°49' E 011°53'1212.2
2016-Jun-28 01:33N 56°37' E 011°59'1212.2
2016-Jun-28 00:33N 56°26' E 012°10'1212.4
2016-Jun-27 23:33N 56°16' E 012°22'1212.3
2016-Jun-27 22:33N 56°06' E 012°35'1312.8
2016-Jun-27 21:34N 55°54' E 012°45'1312.8
2016-Jun-27 20:34N 55°42' E 012°41'7 7.3
2016-Jun-27 19:34N 55°34' E 012°42'10 9.9
2016-Jun-27 18:33N 55°24' E 012°41'1010.1
2016-Jun-27 17:34N 55°16' E 012°52'1212.5
2016-Jun-27 16:34N 55°15' E 013°13'1312.5
2016-Jun-27 15:33N 55°15' E 013°35'1312.9
2016-Jun-27 14:33N 55°14' E 013°58'1212.0
2016-Jun-27 13:33N 55°14' E 014°19'1212.5
2016-Jun-27 12:34N 55°24' E 014°33'1212.0
2016-Jun-27 11:33N 55°31' E 014°50'1312.5
2016-Jun-27 10:33N 55°37' E 015°09'311 6.2
2016-Jun-25 08:25N 59°17' E 021°57'1213.6
2016-Jun-25 07:32N 59°24' E 022°16'1614.9
2016-Jun-25 06:28N 59°32' E 022°43'1516.5
2016-Jun-25 05:33N 59°37' E 023°12'1414.4
2016-Jun-25 04:33N 59°41' E 023°39'1614.3
2016-Jun-25 03:28N 59°45' E 024°09'3414.4
2016-Jun-25 01:07N 59°53' E 025°14'2514.3
2016-Jun-24 23:24N 59°58' E 026°02'1214.6
2016-Jun-24 22:33N 60°00' E 026°26'4213.8
2016-Jun-24 19:33N 60°12' E 027°46'1514.9
2016-Jun-24 18:33N 60°08' E 028°15'1414.1
2016-Jun-24 17:33N 60°03' E 028°41'2713.6
2016-Jun-24 15:33N 60°00' E 029°36'4 0.3
2016-Jun-24 04:33N 59°59' E 029°42'1212.1
2016-Jun-24 03:33N 60°01' E 029°19'1413.7
2016-Jun-24 02:33N 60°02' E 028°51'1413.8
2016-Jun-24 01:33N 60°03' E 028°24'1413.7
2016-Jun-24 00:33N 60°09' E 027°59'1313.2
2016-Jun-23 23:33N 60°07' E 027°33'1614.4
2016-Jun-23 22:25N 59°59' E 027°05'1214.1
2016-Jun-23 21:33N 59°60' E 026°41'1614.2
2016-Jun-23 20:25N 59°57' E 026°09'1414.1
2016-Jun-23 19:26N 59°58' E 025°41'17 1.2
2016-Jun-23 05:25N 60°05' E 025°10'1515.5
2016-Jun-23 04:27N 59°52' E 024°55'1315.0
2016-Jun-23 03:33N 59°45' E 024°33'1615.6
2016-Jun-23 02:33N 59°40' E 024°03'1615.9
2016-Jun-23 01:33N 59°35' E 023°33'1616.0
2016-Jun-23 00:33N 59°30' E 023°03'1615.9
2016-Jun-22 23:33N 59°25' E 022°33'30315.8
2016-Jun-22 04:25N 55°48' E 015°58'1416.1
2016-Jun-22 03:33N 55°41' E 015°36'1616.4
2016-Jun-22 02:33N 55°34' E 015°11'1616.3
2016-Jun-22 01:33N 55°26' E 014°46'1615.8
2016-Jun-22 00:33N 55°15' E 014°26'1616.1
2016-Jun-21 23:33N 55°02' E 014°08'1616.1
2016-Jun-21 22:33N 54°57' E 013°42'1616.3
2016-Jun-21 21:33N 54°52' E 013°15'1616.1
2016-Jun-21 20:33N 54°47' E 012°49'1615.9
2016-Jun-21 19:33N 54°38' E 012°25'1615.5
2016-Jun-21 18:33N 54°25' E 012°11'1615.5
2016-Jun-21 17:33N 54°20' E 011°46'1616.2
2016-Jun-21 16:33N 54°11' E 011°22'  

Dump ship's entire track history